Time;durP1;ratioP1;P1;durP2;ratioP2;P2;SDS_P1;SDS_P2;PMS_P1;PMS_P2;Temp;Humidity;BMP_temperature;BMP_pressure;BME280_temperature;BME280_humidity;BME280_pressure;Samples;Min_cycle;Max_cycle;Signal;HPM_P1;HPM_P2
2021/03/31 00:01:31;;;;;;;1999.90;999.90;;;14.40;99.90;;;;;;5031567;28;20414;-68
2021/03/31 00:03:57;;;;;;;1999.90;999.90;;;14.30;99.90;;;;;;5031529;28;20794;-68
2021/03/31 00:06:23;;;;;;;1999.90;999.90;;;14.30;99.90;;;;;;5031289;28;20258;-68
2021/03/31 00:08:48;;;;;;;1999.90;999.90;;;14.20;99.90;;;;;;5031603;28;20217;-66
2021/03/31 00:11:14;;;;;;;1999.90;999.90;;;14.10;99.90;;;;;;5031570;28;20183;-68
2021/03/31 00:13:40;;;;;;;1999.90;999.90;;;14.10;99.90;;;;;;5031426;28;20264;-68
2021/03/31 00:16:06;;;;;;;1999.90;999.90;;;14.00;99.90;;;;;;5029945;28;20199;-67
2021/03/31 00:18:32;;;;;;;1999.90;999.90;;;14.00;99.90;;;;;;5031416;28;20177;-69
2021/03/31 00:20:58;;;;;;;1999.90;999.90;;;14.00;99.90;;;;;;5031664;28;20457;-68
2021/03/31 00:23:26;;;;;;;1999.90;999.90;;;13.90;99.90;;;;;;5031604;28;20424;-68
2021/03/31 00:25:51;;;;;;;1999.90;999.90;;;13.90;99.90;;;;;;5031285;28;20461;-68
2021/03/31 00:28:20;;;;;;;1999.90;999.90;;;13.80;99.90;;;;;;5031680;28;20491;-67
2021/03/31 00:30:46;;;;;;;1999.90;999.90;;;13.80;99.90;;;;;;5034055;28;20176;-69
2021/03/31 00:33:12;;;;;;;1999.90;999.90;;;13.70;99.90;;;;;;5035129;28;20441;-67
2021/03/31 00:35:38;;;;;;;1999.90;999.90;;;13.60;99.90;;;;;;5034577;28;20457;-67
2021/03/31 00:38:05;;;;;;;1999.90;999.90;;;13.50;99.90;;;;;;5035033;28;20434;-69
2021/03/31 00:40:38;;;;;;;1999.90;999.90;;;13.40;99.90;;;;;;5034855;28;20405;-69
2021/03/31 00:43:04;;;;;;;1999.90;999.90;;;13.30;99.90;;;;;;5034962;28;20982;-68
2021/03/31 00:45:30;;;;;;;1999.90;999.90;;;13.40;99.90;;;;;;5034740;28;20411;-68
2021/03/31 00:47:55;;;;;;;1999.90;999.90;;;13.40;99.90;;;;;;5034807;28;20412;-68
2021/03/31 00:50:21;;;;;;;1999.90;999.90;;;13.40;99.90;;;;;;5034719;28;20499;-67
2021/03/31 00:52:50;;;;;;;1999.90;999.90;;;13.20;99.90;;;;;;5034625;28;20213;-67
2021/03/31 00:55:18;;;;;;;1999.90;999.90;;;13.20;99.90;;;;;;5034307;28;20456;-68
2021/03/31 00:57:44;;;;;;;1999.90;999.90;;;13.20;99.90;;;;;;5034657;28;20445;-68
2021/03/31 01:00:11;;;;;;;1999.90;999.90;;;13.10;99.90;;;;;;5034531;28;20408;-68
2021/03/31 01:02:38;;;;;;;1999.90;999.90;;;13.00;99.90;;;;;;5034389;28;20431;-68
2021/03/31 01:05:15;;;;;;;1999.90;999.90;;;12.90;99.90;;;;;;5034440;28;20411;-70
2021/03/31 01:07:41;;;;;;;1999.90;999.90;;;12.90;99.90;;;;;;5034508;28;20418;-68
2021/03/31 01:10:09;;;;;;;1999.90;999.90;;;12.80;99.90;;;;;;5034467;28;20410;-68
2021/03/31 01:12:58;;;;;;;1999.90;999.90;;;12.70;99.90;;;;;;5034282;28;20568;-69
2021/03/31 01:15:28;;;;;;;1999.90;999.90;;;12.70;99.90;;;;;;5034103;28;20454;-68
2021/03/31 01:18:21;;;;;;;1999.90;999.90;;;12.80;99.90;;;;;;5034476;28;20406;-68
2021/03/31 01:21:21;;;;;;;1999.90;999.90;;;12.80;99.90;;;;;;5034295;28;20496;-71
2021/03/31 01:24:10;;;;;;;1999.90;999.90;;;12.80;99.90;;;;;;5034109;28;20412;-68
2021/03/31 01:26:57;;;;;;;1999.90;999.90;;;12.80;99.90;;;;;;5033897;28;20400;-68
2021/03/31 01:30:01;;;;;;;1999.90;999.90;;;12.80;99.90;;;;;;5034055;28;20408;-67
2021/03/31 01:32:33;;;;;;;1999.90;999.90;;;12.80;99.90;;;;;;5011101;28;20462;-68
2021/03/31 01:35:04;;;;;;;1999.90;999.90;;;12.80;99.90;;;;;;5033652;28;20526;-67
2021/03/31 01:37:37;;;;;;;1999.90;999.90;;;12.70;99.90;;;;;;5033749;28;20399;-68
2021/03/31 01:40:06;;;;;;;1999.90;999.90;;;12.60;99.90;;;;;;5033764;28;20770;-68
2021/03/31 01:42:36;;;;;;;1999.90;999.90;;;12.40;99.90;;;;;;5032926;28;20525;-68
2021/03/31 01:45:05;;;;;;;1999.90;999.90;;;12.40;99.90;;;;;;5033508;28;20418;-69
2021/03/31 01:47:36;;;;;;;1999.90;999.90;;;12.50;99.90;;;;;;5033869;28;20839;-68
2021/03/31 01:50:03;;;;;;;1999.90;999.90;;;12.40;99.90;;;;;;5033657;28;20415;-68
2021/03/31 01:52:30;;;;;;;1999.90;999.90;;;12.50;99.90;;;;;;5033406;28;20459;-69
2021/03/31 01:54:58;;;;;;;1999.90;999.90;;;12.50;99.90;;;;;;5033358;28;20477;-67
2021/03/31 01:57:25;;;;;;;1999.90;999.90;;;12.50;99.90;;;;;;5033543;28;20415;-68
2021/03/31 01:59:54;;;;;;;1999.90;999.90;;;12.50;99.90;;;;;;5032008;28;20415;-68
2021/03/31 02:02:24;;;;;;;1999.90;999.90;;;12.50;99.90;;;;;;5033489;28;20431;-67
2021/03/31 02:04:51;;;;;;;1999.90;999.90;;;12.60;99.90;;;;;;5033072;28;20404;-69
2021/03/31 02:07:19;;;;;;;1999.90;999.90;;;12.60;99.90;;;;;;5033394;28;20419;-68
2021/03/31 02:09:47;;;;;;;1999.90;999.90;;;12.60;99.90;;;;;;5033447;28;20858;-67
2021/03/31 02:12:16;;;;;;;1999.90;999.90;;;12.60;99.90;;;;;;5033175;28;20522;-68
2021/03/31 02:14:44;;;;;;;1999.90;999.90;;;12.60;99.90;;;;;;5033585;28;20416;-69
2021/03/31 02:17:15;;;;;;;1999.90;999.90;;;12.50;99.90;;;;;;5033110;28;20405;-68
2021/03/31 02:19:42;;;;;;;1999.90;999.90;;;12.60;99.90;;;;;;5033087;28;20392;-67
2021/03/31 02:22:08;;;;;;;1999.90;999.90;;;12.50;99.90;;;;;;5032959;28;20525;-67
2021/03/31 02:24:35;;;;;;;1999.90;999.90;;;12.40;99.90;;;;;;5032935;28;20407;-68
2021/03/31 02:27:01;;;;;;;1999.90;999.90;;;12.40;99.90;;;;;;5032724;28;20418;-68
2021/03/31 02:29:27;;;;;;;1999.90;999.90;;;12.40;99.90;;;;;;5032887;28;20403;-68
2021/03/31 02:31:54;;;;;;;1999.90;999.90;;;12.40;99.90;;;;;;5032888;28;20800;-68
2021/03/31 02:34:21;;;;;;;1999.90;999.90;;;12.40;99.90;;;;;;5032971;28;20173;-68
2021/03/31 02:36:49;;;;;;;1999.90;999.90;;;12.30;99.90;;;;;;5032442;28;20459;-68
2021/03/31 02:39:15;;;;;;;1999.90;999.90;;;12.30;99.90;;;;;;5032874;28;21162;-69
2021/03/31 02:41:46;;;;;;;1999.90;999.90;;;12.30;99.90;;;;;;5032813;28;20419;-70
2021/03/31 02:44:13;;;;;;;1999.90;999.90;;;12.30;99.90;;;;;;5032640;28;20419;-68
2021/03/31 02:46:42;;;;;;;1999.90;999.90;;;12.30;99.90;;;;;;5032206;28;20511;-68
2021/03/31 02:49:10;;;;;;;1999.90;999.90;;;12.20;99.90;;;;;;5032478;28;20499;-68
2021/03/31 02:51:37;;;;;;;1999.90;999.90;;;12.20;99.90;;;;;;5032314;28;20407;-67
2021/03/31 02:54:06;;;;;;;1999.90;999.90;;;12.10;99.90;;;;;;5032340;28;20770;-68
2021/03/31 02:56:33;;;;;;;1999.90;999.90;;;12.00;99.90;;;;;;5032067;28;20514;-68
2021/03/31 02:59:00;;;;;;;1999.90;999.90;;;12.10;99.90;;;;;;5032358;28;20407;-69
2021/03/31 03:01:26;;;;;;;1999.90;999.90;;;12.00;99.90;;;;;;5031134;28;20418;-68
2021/03/31 03:03:52;;;;;;;1999.90;999.90;;;11.90;99.90;;;;;;5032226;28;20419;-68
2021/03/31 03:06:18;;;;;;;1999.90;999.90;;;11.80;99.90;;;;;;5032337;28;20918;-69
2021/03/31 03:08:44;;;;;;;1999.90;999.90;;;11.70;99.90;;;;;;5032183;28;20406;-67
2021/03/31 03:11:10;;;;;;;1999.90;999.90;;;11.70;99.90;;;;;;5032350;28;20581;-67
2021/03/31 03:13:36;;;;;;;1999.90;999.90;;;11.70;99.90;;;;;;5032223;28;20486;-67
2021/03/31 03:16:03;;;;;;;1999.90;999.90;;;11.50;99.90;;;;;;5031822;28;20457;-67
2021/03/31 03:18:28;;;;;;;1999.90;999.90;;;11.40;99.90;;;;;;5032148;28;20164;-69
2021/03/31 03:20:54;;;;;;;1999.90;999.90;;;11.30;99.90;;;;;;5032055;28;20406;-68
2021/03/31 03:23:20;;;;;;;1999.90;999.90;;;11.20;99.90;;;;;;5031938;28;20226;-67
2021/03/31 03:25:47;;;;;;;1999.90;999.90;;;11.20;99.90;;;;;;5031724;28;20172;-68
2021/03/31 03:28:22;;;;;;;1999.90;999.90;;;11.10;99.90;;;;;;5032597;28;20481;-69
2021/03/31 03:30:49;;;;;;;1999.90;999.90;;;11.10;99.90;;;;;;5032156;28;20436;-69
2021/03/31 03:33:16;;;;;;;1999.90;999.90;;;11.00;99.90;;;;;;5032144;28;20439;-68
2021/03/31 03:35:42;;;;;;;1999.90;999.90;;;10.90;99.90;;;;;;5031594;28;20544;-69
2021/03/31 03:38:08;;;;;;;1999.90;999.90;;;10.80;99.90;;;;;;5032426;28;20517;-68
2021/03/31 03:40:34;;;;;;;1999.90;999.90;;;10.80;99.90;;;;;;5031862;28;20497;-69
2021/03/31 03:42:59;;;;;;;1999.90;999.90;;;10.90;99.90;;;;;;5032171;28;20774;-68
2021/03/31 03:45:26;;;;;;;1999.90;999.90;;;10.80;99.90;;;;;;5031653;28;20179;-69
2021/03/31 03:47:52;;;;;;;1999.90;999.90;;;10.70;99.90;;;;;;5032086;28;20199;-68
2021/03/31 03:50:18;;;;;;;1999.90;999.90;;;10.70;99.90;;;;;;5031864;28;20403;-68
2021/03/31 03:52:48;;;;;;;1999.90;999.90;;;10.70;99.90;;;;;;5031742;28;20437;-68
2021/03/31 03:55:24;;;;;;;1999.90;999.90;;;10.70;99.90;;;;;;5031298;28;20508;-68
2021/03/31 03:57:51;;;;;;;1999.90;999.90;;;10.60;99.90;;;;;;5031833;28;20403;-67
2021/03/31 04:00:23;;;;;;;1999.90;999.90;;;10.70;99.90;;;;;;5031741;28;20431;-67
2021/03/31 04:02:53;;;;;;;1999.90;999.90;;;10.70;99.90;;;;;;5031556;28;20426;-69
2021/03/31 04:05:18;;;;;;;1999.90;999.90;;;10.70;99.90;;;;;;5032911;28;20417;-68
2021/03/31 04:07:44;;;;;;;1999.90;999.90;;;10.70;99.90;;;;;;5036092;28;20411;-70
2021/03/31 04:10:11;;;;;;;1999.90;999.90;;;10.70;99.90;;;;;;5035628;28;20522;-68
2021/03/31 04:12:38;;;;;;;1999.90;999.90;;;10.70;99.90;;;;;;5035600;28;20555;-68
2021/03/31 04:15:06;;;;;;;1999.90;999.90;;;10.70;99.90;;;;;;5035085;28;20455;-67
2021/03/31 04:17:34;;;;;;;1999.90;999.90;;;10.60;99.90;;;;;;5035633;28;20410;-68
2021/03/31 04:20:00;;;;;;;1999.90;999.90;;;10.60;99.90;;;;;;5035384;28;20792;-70
2021/03/31 04:22:27;;;;;;;1999.90;999.90;;;10.60;99.90;;;;;;5035352;28;20427;-68
2021/03/31 04:24:53;;;;;;;1999.90;999.90;;;10.60;99.90;;;;;;5035356;28;20967;-69
2021/03/31 04:27:19;;;;;;;1999.90;999.90;;;10.50;99.90;;;;;;5035238;28;20777;-70
2021/03/31 04:29:47;;;;;;;1999.90;999.90;;;10.40;99.90;;;;;;5035155;28;20407;-70
2021/03/31 04:32:15;;;;;;;1999.90;999.90;;;10.40;99.90;;;;;;5035534;28;20468;-70
2021/03/31 04:34:41;;;;;;;1999.90;999.90;;;10.20;99.90;;;;;;5035037;28;20772;-68
2021/03/31 04:37:07;;;;;;;1999.90;999.90;;;9.90;99.90;;;;;;5035385;28;20907;-68
2021/03/31 04:39:33;;;;;;;1999.90;999.90;;;9.80;99.90;;;;;;5035081;28;20419;-69
2021/03/31 04:41:58;;;;;;;1999.90;999.90;;;9.60;99.90;;;;;;5035071;28;20282;-67
2021/03/31 04:44:24;;;;;;;1999.90;999.90;;;9.60;99.90;;;;;;5034891;28;20932;-68
2021/03/31 04:46:49;;;;;;;1999.90;999.90;;;9.60;99.90;;;;;;5034576;28;20251;-68
2021/03/31 04:49:15;;;;;;;1999.90;999.90;;;9.60;99.90;;;;;;5034655;28;20641;-68
2021/03/31 04:51:40;;;;;;;1999.90;999.90;;;9.60;99.90;;;;;;5034510;28;20653;-68
2021/03/31 04:54:06;;;;;;;1999.90;999.90;;;9.70;99.90;;;;;;5034842;28;20254;-69
2021/03/31 04:56:32;;;;;;;1999.90;999.90;;;9.70;99.90;;;;;;5034883;28;20202;-67
2021/03/31 04:58:57;;;;;;;1999.90;999.90;;;9.70;99.90;;;;;;5034584;28;20222;-70
2021/03/31 05:01:23;;;;;;;1999.90;999.90;;;9.70;99.90;;;;;;5034703;28;20579;-69
2021/03/31 05:03:49;;;;;;;1999.90;999.90;;;9.60;99.90;;;;;;5034482;28;20196;-68
2021/03/31 05:06:14;;;;;;;1999.90;999.90;;;9.50;99.90;;;;;;5034030;28;20179;-68
2021/03/31 05:08:40;;;;;;;1999.90;999.90;;;9.40;99.90;;;;;;5034576;28;20668;-70
2021/03/31 05:11:05;;;;;;;1999.90;999.90;;;9.50;99.90;;;;;;5034229;28;20203;-68
2021/03/31 05:13:31;;;;;;;1999.90;999.90;;;9.40;99.90;;;;;;5034078;28;20202;-67
2021/03/31 05:15:56;;;;;;;1999.90;999.90;;;9.30;99.90;;;;;;5033223;28;20260;-68
2021/03/31 05:18:22;;;;;;;1999.90;999.90;;;9.30;99.90;;;;;;5033542;28;20202;-68
2021/03/31 05:20:48;;;;;;;1999.90;999.90;;;9.30;99.90;;;;;;5034042;28;20229;-68
2021/03/31 05:23:13;;;;;;;1999.90;999.90;;;9.20;99.90;;;;;;5034409;28;20179;-68
2021/03/31 05:25:39;;;;;;;1999.90;999.90;;;9.10;99.90;;;;;;5033747;28;20577;-69
2021/03/31 05:28:06;;;;;;;1999.90;999.90;;;9.10;99.90;;;;;;5032733;28;20174;-68
2021/03/31 05:30:32;;;;;;;1999.90;999.90;;;9.20;99.90;;;;;;5033875;28;20414;-68
2021/03/31 05:32:58;;;;;;;1999.90;999.90;;;9.20;99.90;;;;;;5033829;28;20457;-68
2021/03/31 05:35:24;;;;;;;1999.90;999.90;;;9.30;99.90;;;;;;5033417;28;20445;-68
2021/03/31 05:37:49;;;;;;;1999.90;999.90;;;9.20;99.90;;;;;;5033770;28;20556;-68
2021/03/31 05:40:15;;;;;;;1999.90;999.90;;;9.10;99.90;;;;;;5033716;28;20182;-67
2021/03/31 05:42:41;;;;;;;1999.90;999.90;;;9.10;99.90;;;;;;5033687;28;20552;-68
2021/03/31 05:45:09;;;;;;;1999.90;999.90;;;9.10;99.90;;;;;;5033328;28;20417;-68
2021/03/31 05:47:39;;;;;;;1999.90;999.90;;;9.10;99.90;;;;;;5033625;28;20410;-67
2021/03/31 05:50:06;;;;;;;1999.90;999.90;;;9.20;99.90;;;;;;5033505;28;20426;-68
2021/03/31 05:52:33;;;;;;;1999.90;999.90;;;9.30;99.90;;;;;;5033426;28;20430;-68
2021/03/31 05:55:01;;;;;;;1999.90;999.90;;;9.30;99.90;;;;;;5033069;28;20437;-68
2021/03/31 05:57:33;;;;;;;1999.90;999.90;;;9.30;99.90;;;;;;5033494;28;20928;-68
2021/03/31 06:00:01;;;;;;;1999.90;999.90;;;9.30;99.90;;;;;;5033317;28;20416;-68
2021/03/31 06:02:28;;;;;;;1999.90;999.90;;;9.40;99.90;;;;;;5033307;28;20940;-70
2021/03/31 06:04:53;;;;;;;1999.90;999.90;;;9.40;99.90;;;;;;5033197;28;20409;-69
2021/03/31 06:07:20;;;;;;;1999.90;999.90;;;9.50;99.90;;;;;;5033226;28;20394;-69
2021/03/31 06:10:12;;;;;;;1999.90;999.90;;;9.60;99.90;;;;;;5033534;28;20716;-68
2021/03/31 06:12:43;;;;;;;1999.90;999.90;;;9.70;99.90;;;;;;5032997;28;20520;-68
2021/03/31 06:15:36;;;;;;;1999.90;999.90;;;9.80;99.90;;;;;;5032609;28;20469;-68
2021/03/31 06:18:08;;;;;;;1999.90;999.90;;;9.90;99.90;;;;;;5033204;28;20490;-69
2021/03/31 06:21:00;;;;;;;1999.90;999.90;;;9.90;99.90;;;;;;5033038;28;20810;-69
2021/03/31 06:26:39;;;;;;;1999.90;999.90;;;10.10;99.90;;;;;;5032742;28;20409;-68
2021/03/31 06:29:09;;;;;;;1999.90;999.90;;;10.20;99.90;;;;;;5032429;28;20404;-68
2021/03/31 06:31:41;;;;;;;1999.90;999.90;;;10.30;99.90;;;;;;5032692;28;20402;-68
2021/03/31 06:34:19;;;;;;;1999.90;999.90;;;10.40;99.90;;;;;;5032703;28;20427;-69
2021/03/31 06:36:51;;;;;;;1999.90;999.90;;;10.60;99.90;;;;;;5032404;28;20462;-70
2021/03/31 06:39:25;;;;;;;1999.90;999.90;;;10.70;99.90;;;;;;5032637;28;20489;-68
2021/03/31 06:42:00;;;;;;;1999.90;999.90;;;10.80;99.90;;;;;;5032410;28;20410;-67
2021/03/31 06:45:01;;;;;;;1999.90;999.90;;;11.00;99.90;;;;;;5032673;28;20409;-68
2021/03/31 06:49:55;;;;;;;1999.90;999.90;;;11.20;99.90;;;;;;5032644;28;20495;-69
2021/03/31 06:52:21;;;;;;;1999.90;999.90;;;11.30;99.90;;;;;;5032300;28;20481;-68
2021/03/31 06:55:00;;;;;;;1999.90;999.90;;;11.50;99.90;;;;;;5032037;28;20417;-68
2021/03/31 06:57:30;;;;;;;1999.90;999.90;;;11.60;99.90;;;;;;5032401;28;20422;-68
2021/03/31 07:00:16;;;;;;;1999.90;999.90;;;11.70;99.90;;;;;;5032290;28;20489;-68
2021/03/31 07:02:45;;;;;;;1999.90;999.90;;;11.90;99.90;;;;;;5032216;28;20525;-72
2021/03/31 07:05:11;;;;;;;1999.90;999.90;;;12.00;99.90;;;;;;5031879;28;20450;-69
2021/03/31 07:07:38;;;;;;;1999.90;999.90;;;12.10;99.90;;;;;;5032400;28;20836;-68
2021/03/31 07:10:12;;;;;;;1999.90;999.90;;;12.20;99.90;;;;;;5032064;28;20912;-68
2021/03/31 07:12:45;;;;;;;1999.90;999.90;;;12.40;99.90;;;;;;5031991;28;20455;-70
2021/03/31 07:15:17;;;;;;;1999.90;999.90;;;12.50;99.90;;;;;;5031782;28;20522;-70
2021/03/31 07:17:51;;;;;;;1999.90;999.90;;;12.70;99.90;;;;;;5032112;28;20407;-69
2021/03/31 07:20:16;;;;;;;1999.90;999.90;;;12.80;99.90;;;;;;5032154;28;20495;-70
2021/03/31 07:22:42;;;;;;;1999.90;999.90;;;12.90;99.90;;;;;;5031971;28;20498;-68
2021/03/31 07:25:11;;;;;;;1999.90;999.90;;;13.00;99.90;;;;;;5031697;28;20168;-68
2021/03/31 07:27:38;;;;;;;1999.90;999.90;;;13.10;99.90;;;;;;5032070;28;20169;-69
2021/03/31 07:30:07;;;;;;;1999.90;999.90;;;13.30;99.90;;;;;;5031881;28;20831;-69
2021/03/31 07:32:52;;;;;;;1999.90;999.90;;;13.40;99.90;;;;;;5031799;28;20847;-68
2021/03/31 07:35:20;;;;;;;1999.90;999.90;;;13.50;99.90;;;;;;5031522;28;20442;-68
2021/03/31 07:37:47;;;;;;;1999.90;999.90;;;13.70;99.90;;;;;;5031841;28;20506;-69
2021/03/31 07:40:15;;;;;;;1999.90;999.90;;;13.80;99.90;;;;;;5033185;28;20396;-69
2021/03/31 07:42:48;;;;;;;1999.90;999.90;;;13.90;99.90;;;;;;5035829;28;20423;-69
2021/03/31 07:45:16;;;;;;;1999.90;999.90;;;14.00;99.90;;;;;;5035668;28;20448;-68
2021/03/31 07:47:44;;;;;;;1999.90;999.90;;;14.10;99.90;;;;;;5035821;28;20466;-68
2021/03/31 07:50:12;;;;;;;1999.90;999.90;;;14.30;99.90;;;;;;5035764;28;20409;-68
2021/03/31 07:52:54;;;;;;;1999.90;999.90;;;14.50;99.90;;;;;;5036065;28;20431;-69
2021/03/31 07:55:41;;;;;;;1999.90;999.90;;;14.60;99.90;;;;;;5035438;28;20465;-69
2021/03/31 07:58:17;;;;;;;1999.90;999.90;;;14.80;99.90;;;;;;5035572;28;20402;-68
2021/03/31 08:00:49;;;;;;;1999.90;999.90;;;14.90;99.90;;;;;;5035582;28;20438;-68
2021/03/31 08:03:33;;;;;;;1999.90;999.90;;;15.10;99.90;;;;;;5035424;28;20418;-68
2021/03/31 08:06:05;;;;;;;1999.90;999.90;;;15.40;99.90;;;;;;5035260;28;20448;-68
2021/03/31 08:08:32;;;;;;;1999.90;999.90;;;15.60;99.90;;;;;;5035700;28;20414;-69
2021/03/31 08:10:59;;;;;;;1999.90;999.90;;;15.80;99.90;;;;;;5035510;28;20417;-69
2021/03/31 08:13:27;;;;;;;1999.90;999.90;;;16.00;99.90;;;;;;5035119;28;20479;-69
2021/03/31 08:15:54;;;;;;;1999.90;999.90;;;16.20;99.90;;;;;;5035019;28;20477;-68
2021/03/31 08:18:21;;;;;;;1999.90;999.90;;;16.30;99.90;;;;;;5035208;28;20405;-69
2021/03/31 08:20:48;;;;;;;1999.90;999.90;;;16.30;99.90;;;;;;5035218;28;20498;-69
2021/03/31 08:23:14;;;;;;;1999.90;999.90;;;16.40;99.90;;;;;;5035096;28;20511;-68
2021/03/31 08:25:40;;;;;;;1999.90;999.90;;;16.40;99.90;;;;;;5034801;28;20487;-69
2021/03/31 08:28:08;;;;;;;1999.90;999.90;;;16.50;99.90;;;;;;5035015;28;20409;-69
2021/03/31 08:30:37;;;;;;;1999.90;999.90;;;16.70;99.90;;;;;;5031242;28;20255;-68
2021/03/31 08:33:04;;;;;;;1999.90;999.90;;;16.80;99.90;;;;;;5032467;28;20461;-71
2021/03/31 08:35:30;;;;;;;1999.90;999.90;;;16.80;99.90;;;;;;5032725;28;20439;-71
2021/03/31 08:37:57;;;;;;;1999.90;999.90;;;17.00;99.90;;;;;;5032984;28;20436;-71
2021/03/31 08:40:29;;;;;;;1999.90;999.90;;;17.20;99.90;;;;;;5033301;28;20753;-70
2021/03/31 08:42:58;;;;;;;1999.90;999.90;;;17.20;99.90;;;;;;5032947;28;20440;-70
2021/03/31 08:45:33;;;;;;;1999.90;999.90;;;17.40;99.90;;;;;;5032154;28;20404;-71
2021/03/31 08:47:59;;;;;;;1999.90;999.90;;;17.50;99.90;;;;;;5033323;28;20409;-68
2021/03/31 08:50:28;;;;;;;1999.90;999.90;;;17.60;99.90;;;;;;5033098;28;20556;-68
2021/03/31 08:53:03;;;;;;;1999.90;999.90;;;17.80;99.90;;;;;;5032502;28;20510;-69
2021/03/31 08:55:31;;;;;;;1999.90;999.90;;;18.00;99.90;;;;;;5032937;28;20446;-69
2021/03/31 08:57:57;;;;;;;1999.90;999.90;;;18.00;99.90;;;;;;5033219;28;20467;-70
2021/03/31 09:00:22;;;;;;;1999.90;999.90;;;18.10;99.90;;;;;;5032447;28;20482;-70
2021/03/31 09:02:48;;;;;;;1999.90;999.90;;;18.20;99.90;;;;;;5032498;28;20429;-70
2021/03/31 09:05:14;;;;;;;1999.90;999.90;;;18.40;99.90;;;;;;5032591;28;20169;-69
2021/03/31 09:07:40;;;;;;;1999.90;999.90;;;18.60;99.90;;;;;;5032112;28;20714;-69
2021/03/31 09:10:12;;;;;;;1999.90;999.90;;;18.70;99.90;;;;;;5032983;28;20495;-69
2021/03/31 09:12:38;;;;;;;1999.90;999.90;;;18.90;99.90;;;;;;5032382;28;20474;-69
2021/03/31 09:15:05;;;;;;;1999.90;999.90;;;19.00;99.90;;;;;;5031761;28;20410;-69
2021/03/31 09:17:33;;;;;;;1999.90;999.90;;;19.20;99.90;;;;;;5032391;28;20502;-69
2021/03/31 09:20:09;;;;;;;1999.90;999.90;;;19.30;99.90;;;;;;5032582;28;20755;-69
2021/03/31 09:22:35;;;;;;;1999.90;999.90;;;19.30;99.90;;;;;;5031909;28;20413;-70
2021/03/31 09:25:10;;;;;;;1999.90;999.90;;;19.50;99.90;;;;;;5032287;28;20409;-70
2021/03/31 09:27:36;;;;;;;1999.90;999.90;;;19.70;99.90;;;;;;5032417;28;20880;-69
2021/03/31 09:30:12;;;;;;;1999.90;999.90;;;19.80;99.90;;;;;;5032055;28;20394;-69
2021/03/31 09:32:43;;;;;;;1999.90;999.90;;;20.00;99.90;;;;;;5032191;28;20488;-69
2021/03/31 09:35:11;;;;;;;1999.90;999.90;;;20.00;99.90;;;;;;5031563;28;20900;-68
2021/03/31 09:37:42;;;;;;;1999.90;999.90;;;20.10;99.90;;;;;;5031574;28;20434;-69
2021/03/31 09:40:09;;;;;;;1999.90;999.90;;;20.30;99.90;;;;;;5032082;28;20924;-69
2021/03/31 09:42:38;;;;;;;1999.90;999.90;;;20.50;99.90;;;;;;5031719;28;21009;-69
2021/03/31 09:45:09;;;;;;;1999.90;999.90;;;20.60;98.90;;;;;;5031385;28;20414;-68
2021/03/31 09:47:38;;;;;;;1999.90;999.90;;;20.80;99.20;;;;;;5031776;28;20414;-69
2021/03/31 09:50:09;;;;;;;1999.90;999.90;;;21.00;98.70;;;;;;5031883;28;20901;-69
2021/03/31 09:52:36;;;;;;;1999.90;999.90;;;21.10;97.70;;;;;;5031105;28;20406;-69
2021/03/31 09:55:10;;;;;;;1999.90;999.90;;;21.30;96.10;;;;;;5031616;28;20428;-69
2021/03/31 09:57:38;;;;;;;1999.90;999.90;;;21.40;95.90;;;;;;5031580;28;20371;-69
2021/03/31 10:00:10;;;;;;;1999.90;999.90;;;21.50;94.80;;;;;;5031408;28;20400;-69
2021/03/31 10:02:36;;;;;;;1999.90;999.90;;;21.60;95.30;;;;;;5030935;28;20481;-69
2021/03/31 10:05:05;;;;;;;1999.90;999.90;;;21.70;96.40;;;;;;5031554;28;20404;-69
2021/03/31 10:07:30;;;;;;;1999.90;999.90;;;21.90;97.10;;;;;;5031141;28;20407;-68
2021/03/31 10:09:56;;;;;;;1999.90;999.90;;;22.00;94.90;;;;;;5031598;28;20445;-68
2021/03/31 10:12:31;;;;;;;1999.90;999.90;;;22.10;93.10;;;;;;5031144;28;20201;-69
2021/03/31 10:14:58;;;;;;;1999.90;999.90;;;22.30;94.60;;;;;;5030812;28;20697;-70
2021/03/31 10:17:26;;;;;;;1999.90;999.90;;;22.50;93.20;;;;;;5031490;28;20949;-69
2021/03/31 10:19:52;;;;;;;1999.90;999.90;;;22.60;92.00;;;;;;5031574;28;20409;-69
2021/03/31 10:22:19;;;;;;;1999.90;999.90;;;22.80;88.10;;;;;;5030490;28;20400;-69
2021/03/31 10:24:48;;;;;;;1999.90;999.90;;;22.90;91.60;;;;;;5031078;28;20479;-69
2021/03/31 10:27:16;;;;;;;1999.90;999.90;;;23.00;93.30;;;;;;5031081;28;20380;-69
2021/03/31 10:29:52;;;;;;;1999.90;999.90;;;23.10;87.90;;;;;;5030593;28;20433;-69
2021/03/31 10:32:23;;;;;;;1999.90;999.90;;;23.20;86.00;;;;;;5030804;28;20866;-69
2021/03/31 10:34:52;;;;;;;1999.90;999.90;;;23.30;88.60;;;;;;5030780;28;20391;-68
2021/03/31 10:37:37;;;;;;;1999.90;999.90;;;23.30;90.00;;;;;;5030820;28;20539;-69
2021/03/31 10:48:56;;;;;;;1999.90;999.90;;;23.70;84.60;;;;;;5030857;28;20448;-71
2021/03/31 10:53:58;;;;;;;1999.90;999.90;;;24.00;80.70;;;;;;5030771;28;20409;-71
2021/03/31 10:56:24;;;;;;;1999.90;999.90;;;24.20;87.90;;;;;;5030559;28;20951;-70
2021/03/31 10:58:49;;;;;;;1999.90;999.90;;;24.20;73.50;;;;;;5030267;28;20378;-68
2021/03/31 11:01:15;;;;;;;1999.90;999.90;;;24.30;66.60;;;;;;5030746;28;20380;-69
2021/03/31 11:03:41;;;;;;;1999.90;999.90;;;24.20;67.50;;;;;;5030614;28;20213;-69
2021/03/31 11:06:07;;;;;;;1999.90;999.90;;;24.30;63.80;;;;;;5029907;28;20389;-69
2021/03/31 11:08:33;;;;;;;1999.90;999.90;;;24.00;60.70;;;;;;5030442;28;20182;-69
2021/03/31 11:10:59;;;;;;;1999.90;999.90;;;23.80;61.80;;;;;;5030469;28;20378;-69
2021/03/31 11:13:24;;;;;;;1999.90;999.90;;;23.60;61.70;;;;;;5030004;28;20304;-69
2021/03/31 11:15:53;;;;;;;1999.90;999.90;;;23.60;63.00;;;;;;5029346;28;20284;-70
2021/03/31 11:26:01;;;;;;;1999.90;999.90;;;24.50;67.10;;;;;;5029878;28;20384;-70
2021/03/31 11:28:27;;;;;;;1999.90;999.90;;;24.80;63.50;;;;;;5029797;28;20908;-70
2021/03/31 11:30:54;;;;;;;1999.90;999.90;;;24.90;61.40;;;;;;5030495;28;20172;-68
2021/03/31 11:33:22;;;;;;;1999.90;999.90;;;25.00;59.00;;;;;;5030290;28;20580;-69
2021/03/31 11:35:48;;;;;;;1999.90;999.90;;;24.90;57.70;;;;;;5027914;28;20466;-69
2021/03/31 11:38:14;;;;;;;1999.90;999.90;;;25.10;62.00;;;;;;5030433;28;20438;-70
2021/03/31 11:40:40;;;;;;;1999.90;999.90;;;25.00;57.20;;;;;;5030409;28;20949;-69
2021/03/31 11:43:07;;;;;;;1999.90;999.90;;;25.20;56.60;;;;;;5029459;28;20516;-70
2021/03/31 11:45:33;;;;;;;1999.90;999.90;;;25.30;57.10;;;;;;5030098;28;20382;-70
2021/03/31 11:47:59;;;;;;;1999.90;999.90;;;25.60;57.10;;;;;;5030295;28;20488;-68
2021/03/31 11:50:25;;;;;;;1999.90;999.90;;;25.90;55.70;;;;;;5030188;28;20472;-68
2021/03/31 11:52:54;;;;;;;1999.90;999.90;;;26.40;58.40;;;;;;5029841;28;20214;-70
2021/03/31 11:55:21;;;;;;;1999.90;999.90;;;27.20;57.00;;;;;;5029725;28;20427;-69
2021/03/31 11:57:47;;;;;;;1999.90;999.90;;;28.10;49.90;;;;;;5029537;28;20472;-69
2021/03/31 12:00:13;;;;;;;1999.90;999.90;;;29.00;50.30;;;;;;5030291;28;20407;-70
2021/03/31 12:02:39;;;;;;;1999.90;999.90;;;29.90;51.10;;;;;;5030068;28;20473;-70
2021/03/31 12:05:05;;;;;;;1999.90;999.90;;;30.70;45.90;;;;;;5029639;28;20502;-70
2021/03/31 12:07:31;;;;;;;1999.90;999.90;;;31.10;45.50;;;;;;5030020;28;20172;-69
2021/03/31 12:09:56;;;;;;;1999.90;999.90;;;31.40;42.40;;;;;;5029952;28;20434;-69
2021/03/31 12:12:22;;;;;;;1999.90;999.90;;;31.40;39.90;;;;;;5029138;28;20558;-69
2021/03/31 12:14:48;;;;;;;1999.90;999.90;;;31.80;41.90;;;;;;5030187;28;20607;-70
2021/03/31 12:17:13;;;;;;;1999.90;999.90;;;32.30;41.80;;;;;;5029597;28;20208;-67
2021/03/31 12:19:39;;;;;;;1999.90;999.90;;;32.60;41.90;;;;;;5029556;28;20399;-70
2021/03/31 12:22:05;;;;;;;1999.90;999.90;;;33.40;42.80;;;;;;5029820;28;20261;-68
2021/03/31 12:24:31;;;;;;;1999.90;999.90;;;33.70;37.50;;;;;;5029868;28;20215;-70
2021/03/31 12:27:05;;;;;;;1999.90;999.90;;;34.20;38.80;;;;;;5031264;28;20172;-67
2021/03/31 12:29:31;;;;;;;1999.90;999.90;;;34.80;36.70;;;;;;5033533;28;20191;-68
2021/03/31 12:31:57;;;;;;;1999.90;999.90;;;35.10;36.70;;;;;;5033154;28;20406;-68
2021/03/31 12:34:22;;;;;;;1999.90;999.90;;;35.40;35.70;;;;;;5032852;28;20896;-68